sensor_id;sensor_type;location;lat;lon;timestamp;P1;durP1;ratioP1;P2;durP2;ratioP2
10963;SDS011;5534;48.784;9.190;2023-08-24T00:00:53;3.95;;;3.08;;
10963;SDS011;5534;48.784;9.190;2023-08-24T00:03:19;4.55;;;3.22;;
10963;SDS011;5534;48.784;9.190;2023-08-24T00:05:47;5.65;;;3.30;;
10963;SDS011;5534;48.784;9.190;2023-08-24T00:08:13;4.05;;;2.97;;
10963;SDS011;5534;48.784;9.190;2023-08-24T00:10:39;5.50;;;3.22;;
10963;SDS011;5534;48.784;9.190;2023-08-24T00:13:08;4.85;;;2.97;;
10963;SDS011;5534;48.784;9.190;2023-08-24T00:15:34;4.65;;;2.95;;
10963;SDS011;5534;48.784;9.190;2023-08-24T00:18:01;5.05;;;3.13;;
10963;SDS011;5534;48.784;9.190;2023-08-24T00:20:27;5.10;;;3.10;;
10963;SDS011;5534;48.784;9.190;2023-08-24T00:22:53;6.38;;;3.50;;
10963;SDS011;5534;48.784;9.190;2023-08-24T00:25:19;4.43;;;3.03;;
10963;SDS011;5534;48.784;9.190;2023-08-24T00:27:45;4.95;;;3.20;;
10963;SDS011;5534;48.784;9.190;2023-08-24T00:30:11;4.22;;;2.65;;
10963;SDS011;5534;48.784;9.190;2023-08-24T00:32:37;5.15;;;3.40;;
10963;SDS011;5534;48.784;9.190;2023-08-24T00:35:03;4.95;;;3.08;;
10963;SDS011;5534;48.784;9.190;2023-08-24T00:37:31;5.38;;;3.40;;
10963;SDS011;5534;48.784;9.190;2023-08-24T00:39:59;3.80;;;3.10;;
10963;SDS011;5534;48.784;9.190;2023-08-24T00:42:25;4.93;;;3.38;;
10963;SDS011;5534;48.784;9.190;2023-08-24T00:44:51;4.80;;;3.50;;
10963;SDS011;5534;48.784;9.190;2023-08-24T00:47:17;4.55;;;3.70;;
10963;SDS011;5534;48.784;9.190;2023-08-24T00:49:43;5.82;;;4.03;;
10963;SDS011;5534;48.784;9.190;2023-08-24T00:52:08;4.82;;;3.50;;
10963;SDS011;5534;48.784;9.190;2023-08-24T00:54:35;5.28;;;3.88;;
10963;SDS011;5534;48.784;9.190;2023-08-24T00:57:04;9.63;;;3.92;;
10963;SDS011;5534;48.784;9.190;2023-08-24T00:59:30;5.70;;;3.83;;
10963;SDS011;5534;48.784;9.190;2023-08-24T01:01:56;5.60;;;3.55;;
10963;SDS011;5534;48.784;9.190;2023-08-24T01:04:24;4.70;;;3.70;;
10963;SDS011;5534;48.784;9.190;2023-08-24T01:06:50;5.78;;;4.25;;
10963;SDS011;5534;48.784;9.190;2023-08-24T01:09:17;5.90;;;3.90;;
10963;SDS011;5534;48.784;9.190;2023-08-24T01:14:47;4.43;;;3.97;;
10963;SDS011;5534;48.784;9.190;2023-08-24T01:17:25;5.10;;;3.47;;
10963;SDS011;5534;48.784;9.190;2023-08-24T01:19:54;4.60;;;3.30;;
10963;SDS011;5534;48.784;9.190;2023-08-24T01:24:54;4.05;;;3.15;;
10963;SDS011;5534;48.784;9.190;2023-08-24T01:27:39;4.50;;;3.03;;
10963;SDS011;5534;48.784;9.190;2023-08-24T01:30:06;5.72;;;3.03;;
10963;SDS011;5534;48.784;9.190;2023-08-24T01:32:36;5.13;;;3.30;;
10963;SDS011;5534;48.784;9.190;2023-08-24T01:35:03;5.03;;;3.33;;
10963;SDS011;5534;48.784;9.190;2023-08-24T01:37:31;3.67;;;2.90;;
10963;SDS011;5534;48.784;9.190;2023-08-24T01:40:08;8.52;;;3.40;;
10963;SDS011;5534;48.784;9.190;2023-08-24T01:42:43;4.60;;;3.30;;
10963;SDS011;5534;48.784;9.190;2023-08-24T01:45:16;4.32;;;3.58;;
10963;SDS011;5534;48.784;9.190;2023-08-24T01:47:44;5.13;;;3.55;;
10963;SDS011;5534;48.784;9.190;2023-08-24T01:50:12;4.63;;;3.38;;
10963;SDS011;5534;48.784;9.190;2023-08-24T01:52:38;3.72;;;3.25;;
10963;SDS011;5534;48.784;9.190;2023-08-24T01:55:05;4.78;;;3.05;;
10963;SDS011;5534;48.784;9.190;2023-08-24T01:57:31;4.20;;;3.15;;
10963;SDS011;5534;48.784;9.190;2023-08-24T01:59:57;4.60;;;2.95;;
10963;SDS011;5534;48.784;9.190;2023-08-24T02:02:23;3.80;;;3.40;;
10963;SDS011;5534;48.784;9.190;2023-08-24T02:04:49;3.78;;;3.38;;
10963;SDS011;5534;48.784;9.190;2023-08-24T02:07:15;5.00;;;3.40;;
10963;SDS011;5534;48.784;9.190;2023-08-24T02:09:41;4.47;;;3.13;;
10963;SDS011;5534;48.784;9.190;2023-08-24T02:12:07;5.60;;;3.30;;
10963;SDS011;5534;48.784;9.190;2023-08-24T02:14:33;4.65;;;3.10;;
10963;SDS011;5534;48.784;9.190;2023-08-24T02:16:59;5.32;;;3.60;;
10963;SDS011;5534;48.784;9.190;2023-08-24T02:19:25;3.80;;;3.40;;
10963;SDS011;5534;48.784;9.190;2023-08-24T02:21:50;3.70;;;3.20;;
10963;SDS011;5534;48.784;9.190;2023-08-24T02:24:16;5.25;;;3.55;;
10963;SDS011;5534;48.784;9.190;2023-08-24T02:26:42;4.75;;;3.47;;
10963;SDS011;5534;48.784;9.190;2023-08-24T02:29:07;7.32;;;4.07;;
10963;SDS011;5534;48.784;9.190;2023-08-24T02:31:33;4.68;;;4.07;;
10963;SDS011;5534;48.784;9.190;2023-08-24T02:33:59;4.13;;;3.72;;
10963;SDS011;5534;48.784;9.190;2023-08-24T02:36:25;7.03;;;5.35;;
10963;SDS011;5534;48.784;9.190;2023-08-24T02:38:50;6.05;;;4.40;;
10963;SDS011;5534;48.784;9.190;2023-08-24T02:41:16;5.72;;;4.30;;
10963;SDS011;5534;48.784;9.190;2023-08-24T02:43:44;8.07;;;4.20;;
10963;SDS011;5534;48.784;9.190;2023-08-24T02:46:10;8.68;;;4.43;;
10963;SDS011;5534;48.784;9.190;2023-08-24T02:48:36;8.27;;;5.35;;
10963;SDS011;5534;48.784;9.190;2023-08-24T02:51:02;6.72;;;4.38;;
10963;SDS011;5534;48.784;9.190;2023-08-24T02:53:29;5.93;;;4.22;;
10963;SDS011;5534;48.784;9.190;2023-08-24T02:55:55;4.78;;;4.30;;
10963;SDS011;5534;48.784;9.190;2023-08-24T02:58:21;5.38;;;4.53;;
10963;SDS011;5534;48.784;9.190;2023-08-24T03:00:47;5.57;;;4.45;;
10963;SDS011;5534;48.784;9.190;2023-08-24T03:03:13;6.47;;;4.93;;
10963;SDS011;5534;48.784;9.190;2023-08-24T03:05:40;7.65;;;4.63;;
10963;SDS011;5534;48.784;9.190;2023-08-24T03:08:06;6.03;;;4.57;;
10963;SDS011;5534;48.784;9.190;2023-08-24T03:10:35;7.75;;;4.95;;
10963;SDS011;5534;48.784;9.190;2023-08-24T03:13:01;5.90;;;4.65;;
10963;SDS011;5534;48.784;9.190;2023-08-24T03:15:29;5.38;;;4.10;;
10963;SDS011;5534;48.784;9.190;2023-08-24T03:17:56;7.68;;;5.10;;
10963;SDS011;5534;48.784;9.190;2023-08-24T03:20:21;6.07;;;4.38;;
10963;SDS011;5534;48.784;9.190;2023-08-24T03:22:47;5.20;;;4.70;;
10963;SDS011;5534;48.784;9.190;2023-08-24T03:25:13;8.52;;;4.65;;
10963;SDS011;5534;48.784;9.190;2023-08-24T03:27:39;8.90;;;4.88;;
10963;SDS011;5534;48.784;9.190;2023-08-24T03:30:05;6.95;;;4.88;;
10963;SDS011;5534;48.784;9.190;2023-08-24T03:32:31;6.80;;;5.07;;
10963;SDS011;5534;48.784;9.190;2023-08-24T03:35:01;5.95;;;4.55;;
10963;SDS011;5534;48.784;9.190;2023-08-24T03:37:28;5.45;;;4.95;;
10963;SDS011;5534;48.784;9.190;2023-08-24T03:39:53;5.80;;;4.68;;
10963;SDS011;5534;48.784;9.190;2023-08-24T03:42:19;8.18;;;5.30;;
10963;SDS011;5534;48.784;9.190;2023-08-24T03:44:45;6.65;;;5.25;;
10963;SDS011;5534;48.784;9.190;2023-08-24T03:47:11;8.48;;;5.88;;
10963;SDS011;5534;48.784;9.190;2023-08-24T03:49:36;10.85;;;5.75;;
10963;SDS011;5534;48.784;9.190;2023-08-24T03:52:03;9.65;;;5.65;;
10963;SDS011;5534;48.784;9.190;2023-08-24T03:54:28;8.13;;;5.50;;
10963;SDS011;5534;48.784;9.190;2023-08-24T03:56:54;11.07;;;5.75;;
10963;SDS011;5534;48.784;9.190;2023-08-24T03:59:20;9.70;;;6.10;;
10963;SDS011;5534;48.784;9.190;2023-08-24T04:01:46;10.07;;;5.82;;
10963;SDS011;5534;48.784;9.190;2023-08-24T04:04:11;7.88;;;6.07;;
10963;SDS011;5534;48.784;9.190;2023-08-24T04:06:37;9.38;;;5.75;;
10963;SDS011;5534;48.784;9.190;2023-08-24T04:09:04;8.38;;;5.53;;
10963;SDS011;5534;48.784;9.190;2023-08-24T04:11:31;7.80;;;5.55;;
10963;SDS011;5534;48.784;9.190;2023-08-24T04:13:57;8.10;;;5.57;;
10963;SDS011;5534;48.784;9.190;2023-08-24T04:16:23;7.28;;;5.15;;
10963;SDS011;5534;48.784;9.190;2023-08-24T04:18:48;7.57;;;5.47;;
10963;SDS011;5534;48.784;9.190;2023-08-24T04:21:14;7.65;;;5.22;;
10963;SDS011;5534;48.784;9.190;2023-08-24T04:23:40;7.88;;;5.00;;
10963;SDS011;5534;48.784;9.190;2023-08-24T04:26:13;5.90;;;4.65;;
10963;SDS011;5534;48.784;9.190;2023-08-24T04:28:39;8.52;;;4.60;;
10963;SDS011;5534;48.784;9.190;2023-08-24T04:31:05;7.18;;;5.13;;
10963;SDS011;5534;48.784;9.190;2023-08-24T04:33:30;9.25;;;5.10;;
10963;SDS011;5534;48.784;9.190;2023-08-24T04:35:56;5.30;;;4.53;;
10963;SDS011;5534;48.784;9.190;2023-08-24T04:38:23;5.32;;;4.55;;
10963;SDS011;5534;48.784;9.190;2023-08-24T04:40:53;6.63;;;4.55;;
10963;SDS011;5534;48.784;9.190;2023-08-24T04:43:20;6.90;;;4.60;;
10963;SDS011;5534;48.784;9.190;2023-08-24T04:45:54;7.18;;;5.22;;
10963;SDS011;5534;48.784;9.190;2023-08-24T04:48:20;9.70;;;5.18;;
10963;SDS011;5534;48.784;9.190;2023-08-24T04:50:47;6.45;;;4.90;;
10963;SDS011;5534;48.784;9.190;2023-08-24T04:53:15;8.80;;;4.75;;
10963;SDS011;5534;48.784;9.190;2023-08-24T04:55:42;5.93;;;4.68;;
10963;SDS011;5534;48.784;9.190;2023-08-24T04:58:09;6.93;;;4.68;;
10963;SDS011;5534;48.784;9.190;2023-08-24T05:00:36;8.95;;;4.70;;
10963;SDS011;5534;48.784;9.190;2023-08-24T05:03:03;8.93;;;4.72;;
10963;SDS011;5534;48.784;9.190;2023-08-24T05:05:30;7.82;;;5.00;;
10963;SDS011;5534;48.784;9.190;2023-08-24T05:08:00;8.15;;;5.25;;
10963;SDS011;5534;48.784;9.190;2023-08-24T05:10:29;7.22;;;5.03;;
10963;SDS011;5534;48.784;9.190;2023-08-24T05:12:55;6.38;;;4.00;;
10963;SDS011;5534;48.784;9.190;2023-08-24T05:15:21;7.43;;;4.72;;
10963;SDS011;5534;48.784;9.190;2023-08-24T05:17:47;4.88;;;4.38;;
10963;SDS011;5534;48.784;9.190;2023-08-24T05:20:13;11.88;;;5.15;;
10963;SDS011;5534;48.784;9.190;2023-08-24T05:22:39;5.00;;;4.43;;
10963;SDS011;5534;48.784;9.190;2023-08-24T05:25:05;6.30;;;4.20;;
10963;SDS011;5534;48.784;9.190;2023-08-24T05:27:31;5.45;;;3.80;;
10963;SDS011;5534;48.784;9.190;2023-08-24T05:29:57;4.68;;;3.85;;
10963;SDS011;5534;48.784;9.190;2023-08-24T05:32:23;4.72;;;3.97;;
10963;SDS011;5534;48.784;9.190;2023-08-24T05:34:49;9.38;;;4.35;;
10963;SDS011;5534;48.784;9.190;2023-08-24T05:37:15;9.07;;;5.10;;
10963;SDS011;5534;48.784;9.190;2023-08-24T05:39:41;7.28;;;4.80;;
10963;SDS011;5534;48.784;9.190;2023-08-24T05:42:08;5.10;;;4.60;;
10963;SDS011;5534;48.784;9.190;2023-08-24T05:44:34;6.57;;;4.88;;
10963;SDS011;5534;48.784;9.190;2023-08-24T05:47:00;7.40;;;5.05;;
10963;SDS011;5534;48.784;9.190;2023-08-24T05:49:26;6.90;;;4.50;;
10963;SDS011;5534;48.784;9.190;2023-08-24T05:51:51;8.50;;;5.40;;
10963;SDS011;5534;48.784;9.190;2023-08-24T05:54:18;5.53;;;4.38;;
10963;SDS011;5534;48.784;9.190;2023-08-24T05:56:44;7.80;;;4.85;;
10963;SDS011;5534;48.784;9.190;2023-08-24T05:59:16;6.38;;;4.53;;
10963;SDS011;5534;48.784;9.190;2023-08-24T06:01:41;5.18;;;4.40;;
10963;SDS011;5534;48.784;9.190;2023-08-24T06:04:08;4.00;;;3.60;;
10963;SDS011;5534;48.784;9.190;2023-08-24T06:06:37;7.25;;;4.28;;
10963;SDS011;5534;48.784;9.190;2023-08-24T06:09:03;4.18;;;3.72;;
10963;SDS011;5534;48.784;9.190;2023-08-24T06:11:32;5.53;;;4.40;;
10963;SDS011;5534;48.784;9.190;2023-08-24T06:13:58;8.68;;;4.80;;
10963;SDS011;5534;48.784;9.190;2023-08-24T06:16:23;5.10;;;4.60;;
10963;SDS011;5534;48.784;9.190;2023-08-24T06:18:49;6.00;;;4.05;;
10963;SDS011;5534;48.784;9.190;2023-08-24T06:21:16;5.03;;;4.18;;
10963;SDS011;5534;48.784;9.190;2023-08-24T06:23:42;7.03;;;4.50;;
10963;SDS011;5534;48.784;9.190;2023-08-24T06:26:09;6.85;;;4.05;;
10963;SDS011;5534;48.784;9.190;2023-08-24T06:28:35;7.72;;;5.03;;
10963;SDS011;5534;48.784;9.190;2023-08-24T06:31:00;4.97;;;4.22;;
10963;SDS011;5534;48.784;9.190;2023-08-24T06:33:27;7.40;;;4.35;;
10963;SDS011;5534;48.784;9.190;2023-08-24T06:35:59;4.70;;;4.00;;
10963;SDS011;5534;48.784;9.190;2023-08-24T06:38:25;4.25;;;3.85;;
10963;SDS011;5534;48.784;9.190;2023-08-24T06:40:51;6.68;;;4.00;;
10963;SDS011;5534;48.784;9.190;2023-08-24T06:43:16;7.22;;;3.80;;
10963;SDS011;5534;48.784;9.190;2023-08-24T06:45:43;5.13;;;3.80;;
10963;SDS011;5534;48.784;9.190;2023-08-24T06:48:09;8.20;;;4.53;;
10963;SDS011;5534;48.784;9.190;2023-08-24T06:50:35;5.70;;;4.10;;
10963;SDS011;5534;48.784;9.190;2023-08-24T06:53:04;7.60;;;4.22;;
10963;SDS011;5534;48.784;9.190;2023-08-24T06:55:30;6.80;;;4.47;;
10963;SDS011;5534;48.784;9.190;2023-08-24T06:57:56;5.80;;;4.70;;
10963;SDS011;5534;48.784;9.190;2023-08-24T07:00:22;11.30;;;4.68;;
10963;SDS011;5534;48.784;9.190;2023-08-24T07:02:48;8.27;;;4.72;;
10963;SDS011;5534;48.784;9.190;2023-08-24T07:05:15;5.47;;;4.40;;
10963;SDS011;5534;48.784;9.190;2023-08-24T07:07:47;6.63;;;4.63;;
10963;SDS011;5534;48.784;9.190;2023-08-24T07:10:14;5.85;;;4.35;;
10963;SDS011;5534;48.784;9.190;2023-08-24T07:12:40;7.90;;;4.72;;
10963;SDS011;5534;48.784;9.190;2023-08-24T07:15:06;12.48;;;4.45;;
10963;SDS011;5534;48.784;9.190;2023-08-24T07:17:35;6.20;;;4.28;;
10963;SDS011;5534;48.784;9.190;2023-08-24T07:20:02;6.45;;;4.35;;
10963;SDS011;5534;48.784;9.190;2023-08-24T07:22:31;5.45;;;4.05;;
10963;SDS011;5534;48.784;9.190;2023-08-24T07:24:57;6.57;;;4.10;;
10963;SDS011;5534;48.784;9.190;2023-08-24T07:27:23;5.75;;;4.15;;
10963;SDS011;5534;48.784;9.190;2023-08-24T07:29:49;6.00;;;3.92;;
10963;SDS011;5534;48.784;9.190;2023-08-24T07:32:17;5.40;;;3.90;;
10963;SDS011;5534;48.784;9.190;2023-08-24T07:34:44;7.68;;;4.65;;
10963;SDS011;5534;48.784;9.190;2023-08-24T07:37:10;7.65;;;3.97;;
10963;SDS011;5534;48.784;9.190;2023-08-24T07:39:35;7.50;;;4.50;;
10963;SDS011;5534;48.784;9.190;2023-08-24T07:42:02;6.25;;;4.63;;
10963;SDS011;5534;48.784;9.190;2023-08-24T07:44:30;5.80;;;4.60;;
10963;SDS011;5534;48.784;9.190;2023-08-24T07:46:56;7.30;;;4.72;;
10963;SDS011;5534;48.784;9.190;2023-08-24T07:49:22;8.27;;;4.53;;
10963;SDS011;5534;48.784;9.190;2023-08-24T07:51:48;6.70;;;4.72;;
10963;SDS011;5534;48.784;9.190;2023-08-24T07:54:14;7.85;;;5.57;;
10963;SDS011;5534;48.784;9.190;2023-08-24T07:56:40;9.90;;;4.70;;
10963;SDS011;5534;48.784;9.190;2023-08-24T07:59:06;6.97;;;4.57;;
10963;SDS011;5534;48.784;9.190;2023-08-24T08:01:32;8.30;;;4.10;;
10963;SDS011;5534;48.784;9.190;2023-08-24T08:03:58;8.48;;;4.63;;
10963;SDS011;5534;48.784;9.190;2023-08-24T08:06:25;5.55;;;3.60;;
10963;SDS011;5534;48.784;9.190;2023-08-24T08:08:51;6.75;;;3.90;;
10963;SDS011;5534;48.784;9.190;2023-08-24T08:11:18;4.90;;;3.33;;
10963;SDS011;5534;48.784;9.190;2023-08-24T08:13:44;8.48;;;3.50;;
10963;SDS011;5534;48.784;9.190;2023-08-24T08:16:10;5.40;;;3.80;;
10963;SDS011;5534;48.784;9.190;2023-08-24T08:18:36;6.63;;;3.65;;
10963;SDS011;5534;48.784;9.190;2023-08-24T08:21:15;7.03;;;3.60;;
10963;SDS011;5534;48.784;9.190;2023-08-24T08:23:44;8.05;;;4.05;;
10963;SDS011;5534;48.784;9.190;2023-08-24T08:26:10;4.85;;;3.25;;
10963;SDS011;5534;48.784;9.190;2023-08-24T08:28:37;6.43;;;3.60;;
10963;SDS011;5534;48.784;9.190;2023-08-24T08:31:02;4.88;;;3.65;;
10963;SDS011;5534;48.784;9.190;2023-08-24T08:33:28;4.93;;;3.53;;
10963;SDS011;5534;48.784;9.190;2023-08-24T08:35:55;5.90;;;3.60;;
10963;SDS011;5534;48.784;9.190;2023-08-24T08:38:21;4.57;;;3.30;;
10963;SDS011;5534;48.784;9.190;2023-08-24T08:40:51;3.55;;;3.25;;
10963;SDS011;5534;48.784;9.190;2023-08-24T08:43:21;6.10;;;3.50;;
10963;SDS011;5534;48.784;9.190;2023-08-24T08:45:51;4.88;;;3.70;;
10963;SDS011;5534;48.784;9.190;2023-08-24T08:48:18;4.07;;;3.50;;
10963;SDS011;5534;48.784;9.190;2023-08-24T08:50:47;11.02;;;3.90;;
10963;SDS011;5534;48.784;9.190;2023-08-24T08:53:14;6.28;;;3.45;;
10963;SDS011;5534;48.784;9.190;2023-08-24T08:55:41;7.38;;;3.42;;
10963;SDS011;5534;48.784;9.190;2023-08-24T08:58:07;5.63;;;3.90;;
10963;SDS011;5534;48.784;9.190;2023-08-24T09:00:33;3.95;;;3.15;;
10963;SDS011;5534;48.784;9.190;2023-08-24T09:03:01;3.00;;;2.70;;
10963;SDS011;5534;48.784;9.190;2023-08-24T09:05:28;3.95;;;3.08;;
10963;SDS011;5534;48.784;9.190;2023-08-24T09:07:54;5.93;;;3.50;;
10963;SDS011;5534;48.784;9.190;2023-08-24T09:10:23;4.45;;;3.47;;
10963;SDS011;5534;48.784;9.190;2023-08-24T09:12:49;4.55;;;3.47;;
10963;SDS011;5534;48.784;9.190;2023-08-24T09:15:20;4.85;;;3.60;;
10963;SDS011;5534;48.784;9.190;2023-08-24T09:17:50;6.90;;;3.80;;
10963;SDS011;5534;48.784;9.190;2023-08-24T09:20:16;4.78;;;3.53;;
10963;SDS011;5534;48.784;9.190;2023-08-24T09:22:44;4.75;;;3.38;;
10963;SDS011;5534;48.784;9.190;2023-08-24T09:25:10;4.03;;;3.20;;
10963;SDS011;5534;48.784;9.190;2023-08-24T09:27:36;6.55;;;3.50;;
10963;SDS011;5534;48.784;9.190;2023-08-24T09:30:02;4.72;;;3.75;;
10963;SDS011;5534;48.784;9.190;2023-08-24T09:32:31;5.57;;;3.50;;
10963;SDS011;5534;48.784;9.190;2023-08-24T09:35:04;7.60;;;4.68;;
10963;SDS011;5534;48.784;9.190;2023-08-24T09:37:35;7.80;;;3.58;;
10963;SDS011;5534;48.784;9.190;2023-08-24T09:40:04;6.90;;;4.25;;
10963;SDS011;5534;48.784;9.190;2023-08-24T09:42:41;3.63;;;3.30;;
10963;SDS011;5534;48.784;9.190;2023-08-24T09:45:09;8.55;;;4.43;;
10963;SDS011;5534;48.784;9.190;2023-08-24T09:47:37;10.38;;;4.60;;
10963;SDS011;5534;48.784;9.190;2023-08-24T09:50:03;7.00;;;4.72;;
10963;SDS011;5534;48.784;9.190;2023-08-24T09:52:33;9.88;;;5.63;;
10963;SDS011;5534;48.784;9.190;2023-08-24T09:55:03;7.70;;;5.03;;
10963;SDS011;5534;48.784;9.190;2023-08-24T09:57:37;7.55;;;4.63;;
10963;SDS011;5534;48.784;9.190;2023-08-24T10:00:07;8.93;;;5.85;;
10963;SDS011;5534;48.784;9.190;2023-08-24T10:02:50;6.18;;;3.92;;
10963;SDS011;5534;48.784;9.190;2023-08-24T10:05:23;7.15;;;4.28;;
10963;SDS011;5534;48.784;9.190;2023-08-24T10:07:53;7.85;;;4.18;;
10963;SDS011;5534;48.784;9.190;2023-08-24T10:10:23;7.50;;;3.30;;
10963;SDS011;5534;48.784;9.190;2023-08-24T10:12:51;5.60;;;3.45;;
10963;SDS011;5534;48.784;9.190;2023-08-24T10:15:23;4.93;;;3.60;;
10963;SDS011;5534;48.784;9.190;2023-08-24T10:17:49;4.20;;;3.58;;
10963;SDS011;5534;48.784;9.190;2023-08-24T10:20:17;6.30;;;3.42;;
10963;SDS011;5534;48.784;9.190;2023-08-24T10:22:47;3.92;;;3.58;;
10963;SDS011;5534;48.784;9.190;2023-08-24T10:25:14;5.63;;;4.00;;
10963;SDS011;5534;48.784;9.190;2023-08-24T10:27:43;4.22;;;3.50;;
10963;SDS011;5534;48.784;9.190;2023-08-24T10:30:11;7.07;;;3.80;;
10963;SDS011;5534;48.784;9.190;2023-08-24T10:32:38;6.70;;;3.42;;
10963;SDS011;5534;48.784;9.190;2023-08-24T10:35:06;6.35;;;3.63;;
10963;SDS011;5534;48.784;9.190;2023-08-24T10:37:32;5.20;;;4.70;;
10963;SDS011;5534;48.784;9.190;2023-08-24T10:40:01;4.25;;;3.85;;
10963;SDS011;5534;48.784;9.190;2023-08-24T10:42:33;4.15;;;3.53;;
10963;SDS011;5534;48.784;9.190;2023-08-24T10:45:09;4.80;;;3.75;;
10963;SDS011;5534;48.784;9.190;2023-08-24T10:47:43;4.25;;;3.60;;
10963;SDS011;5534;48.784;9.190;2023-08-24T10:50:12;5.40;;;3.75;;
10963;SDS011;5534;48.784;9.190;2023-08-24T10:52:39;4.40;;;3.80;;
10963;SDS011;5534;48.784;9.190;2023-08-24T10:55:22;6.10;;;4.43;;
10963;SDS011;5534;48.784;9.190;2023-08-24T10:57:57;4.18;;;3.58;;
10963;SDS011;5534;48.784;9.190;2023-08-24T11:00:27;6.43;;;4.07;;
10963;SDS011;5534;48.784;9.190;2023-08-24T11:02:58;5.50;;;4.47;;
10963;SDS011;5534;48.784;9.190;2023-08-24T11:08:04;5.20;;;4.05;;
10963;SDS011;5534;48.784;9.190;2023-08-24T11:10:51;10.02;;;4.13;;
10963;SDS011;5534;48.784;9.190;2023-08-24T11:13:19;10.07;;;4.20;;
10963;SDS011;5534;48.784;9.190;2023-08-24T11:15:48;7.22;;;4.93;;
10963;SDS011;5534;48.784;9.190;2023-08-24T11:18:26;7.45;;;4.95;;
10963;SDS011;5534;48.784;9.190;2023-08-24T11:23:30;5.60;;;4.70;;
10963;SDS011;5534;48.784;9.190;2023-08-24T11:25:59;4.30;;;3.88;;
10963;SDS011;5534;48.784;9.190;2023-08-24T11:28:30;6.30;;;4.05;;
10963;SDS011;5534;48.784;9.190;2023-08-24T11:30:57;8.30;;;4.55;;
10963;SDS011;5534;48.784;9.190;2023-08-24T11:33:30;5.68;;;4.47;;
10963;SDS011;5534;48.784;9.190;2023-08-24T11:35:57;6.30;;;3.95;;
10963;SDS011;5534;48.784;9.190;2023-08-24T11:38:24;5.50;;;4.05;;
10963;SDS011;5534;48.784;9.190;2023-08-24T11:40:50;5.05;;;3.78;;
10963;SDS011;5534;48.784;9.190;2023-08-24T11:43:25;7.18;;;4.07;;
10963;SDS011;5534;48.784;9.190;2023-08-24T11:45:52;6.32;;;4.70;;
10963;SDS011;5534;48.784;9.190;2023-08-24T11:48:23;4.93;;;3.40;;
10963;SDS011;5534;48.784;9.190;2023-08-24T11:50:50;9.10;;;4.35;;
10963;SDS011;5534;48.784;9.190;2023-08-24T11:53:16;5.32;;;3.92;;
10963;SDS011;5534;48.784;9.190;2023-08-24T11:55:42;7.93;;;4.60;;
10963;SDS011;5534;48.784;9.190;2023-08-24T11:58:15;6.40;;;4.35;;
10963;SDS011;5534;48.784;9.190;2023-08-24T12:00:41;6.85;;;4.30;;
10963;SDS011;5534;48.784;9.190;2023-08-24T12:03:08;5.13;;;4.00;;
10963;SDS011;5534;48.784;9.190;2023-08-24T12:05:35;6.03;;;3.92;;
10963;SDS011;5534;48.784;9.190;2023-08-24T12:08:01;4.28;;;3.72;;
10963;SDS011;5534;48.784;9.190;2023-08-24T12:10:27;5.78;;;4.20;;
10963;SDS011;5534;48.784;9.190;2023-08-24T12:13:03;5.53;;;4.30;;
10963;SDS011;5534;48.784;9.190;2023-08-24T12:15:36;5.88;;;4.00;;
10963;SDS011;5534;48.784;9.190;2023-08-24T12:18:09;5.65;;;4.30;;
10963;SDS011;5534;48.784;9.190;2023-08-24T12:20:35;4.93;;;4.05;;
10963;SDS011;5534;48.784;9.190;2023-08-24T12:23:02;4.40;;;3.83;;
10963;SDS011;5534;48.784;9.190;2023-08-24T12:25:28;4.18;;;3.88;;
10963;SDS011;5534;48.784;9.190;2023-08-24T12:28:13;9.82;;;4.55;;
10963;SDS011;5534;48.784;9.190;2023-08-24T12:30:44;7.97;;;4.30;;
10963;SDS011;5534;48.784;9.190;2023-08-24T12:33:28;7.22;;;4.32;;
10963;SDS011;5534;48.784;9.190;2023-08-24T12:35:56;5.13;;;4.60;;
10963;SDS011;5534;48.784;9.190;2023-08-24T12:38:26;6.65;;;4.85;;
10963;SDS011;5534;48.784;9.190;2023-08-24T12:40:52;5.55;;;4.30;;
10963;SDS011;5534;48.784;9.190;2023-08-24T12:43:18;6.20;;;4.00;;
10963;SDS011;5534;48.784;9.190;2023-08-24T12:45:45;6.03;;;4.28;;
10963;SDS011;5534;48.784;9.190;2023-08-24T12:48:10;4.32;;;3.92;;
10963;SDS011;5534;48.784;9.190;2023-08-24T12:50:37;7.32;;;4.25;;
10963;SDS011;5534;48.784;9.190;2023-08-24T12:53:03;6.03;;;4.75;;
10963;SDS011;5534;48.784;9.190;2023-08-24T12:55:31;6.45;;;4.45;;
10963;SDS011;5534;48.784;9.190;2023-08-24T12:57:58;6.72;;;4.45;;
10963;SDS011;5534;48.784;9.190;2023-08-24T13:00:24;5.60;;;4.70;;
10963;SDS011;5534;48.784;9.190;2023-08-24T13:02:50;6.38;;;4.30;;
10963;SDS011;5534;48.784;9.190;2023-08-24T13:05:16;5.47;;;3.80;;
10963;SDS011;5534;48.784;9.190;2023-08-24T13:07:42;10.55;;;4.50;;
10963;SDS011;5534;48.784;9.190;2023-08-24T13:10:08;6.43;;;3.83;;
10963;SDS011;5534;48.784;9.190;2023-08-24T13:12:34;7.07;;;4.00;;
10963;SDS011;5534;48.784;9.190;2023-08-24T13:15:01;5.28;;;4.25;;
10963;SDS011;5534;48.784;9.190;2023-08-24T13:17:29;7.20;;;4.20;;
10963;SDS011;5534;48.784;9.190;2023-08-24T13:19:55;6.70;;;3.67;;
10963;SDS011;5534;48.784;9.190;2023-08-24T13:22:21;5.95;;;3.60;;
10963;SDS011;5534;48.784;9.190;2023-08-24T13:24:47;4.45;;;3.47;;
10963;SDS011;5534;48.784;9.190;2023-08-24T13:27:13;5.65;;;3.83;;
10963;SDS011;5534;48.784;9.190;2023-08-24T13:29:40;8.00;;;4.05;;
10963;SDS011;5534;48.784;9.190;2023-08-24T13:32:06;9.93;;;3.95;;
10963;SDS011;5534;48.784;9.190;2023-08-24T13:34:33;8.43;;;3.78;;
10963;SDS011;5534;48.784;9.190;2023-08-24T13:36:59;7.10;;;5.25;;
10963;SDS011;5534;48.784;9.190;2023-08-24T13:39:25;10.85;;;4.88;;
10963;SDS011;5534;48.784;9.190;2023-08-24T13:41:57;8.40;;;4.85;;
10963;SDS011;5534;48.784;9.190;2023-08-24T13:44:26;7.90;;;4.95;;
10963;SDS011;5534;48.784;9.190;2023-08-24T13:46:52;6.03;;;3.92;;
10963;SDS011;5534;48.784;9.190;2023-08-24T13:49:18;11.68;;;4.10;;
10963;SDS011;5534;48.784;9.190;2023-08-24T13:51:44;7.00;;;4.28;;
10963;SDS011;5534;48.784;9.190;2023-08-24T13:54:17;10.55;;;3.70;;
10963;SDS011;5534;48.784;9.190;2023-08-24T13:56:44;7.00;;;3.72;;
10963;SDS011;5534;48.784;9.190;2023-08-24T13:59:10;7.70;;;3.78;;
10963;SDS011;5534;48.784;9.190;2023-08-24T14:01:36;5.20;;;3.30;;
10963;SDS011;5534;48.784;9.190;2023-08-24T14:04:03;8.18;;;3.42;;
10963;SDS011;5534;48.784;9.190;2023-08-24T14:06:29;8.05;;;3.90;;
10963;SDS011;5534;48.784;9.190;2023-08-24T14:08:58;7.80;;;3.88;;
10963;SDS011;5534;48.784;9.190;2023-08-24T14:11:24;7.22;;;3.42;;
10963;SDS011;5534;48.784;9.190;2023-08-24T14:13:50;7.65;;;3.40;;
10963;SDS011;5534;48.784;9.190;2023-08-24T14:16:17;4.95;;;3.60;;
10963;SDS011;5534;48.784;9.190;2023-08-24T14:18:47;5.57;;;3.80;;
10963;SDS011;5534;48.784;9.190;2023-08-24T14:21:13;7.13;;;3.97;;
10963;SDS011;5534;48.784;9.190;2023-08-24T14:23:39;6.38;;;3.90;;
10963;SDS011;5534;48.784;9.190;2023-08-24T14:26:06;7.82;;;3.25;;
10963;SDS011;5534;48.784;9.190;2023-08-24T14:31:22;6.55;;;3.60;;
10963;SDS011;5534;48.784;9.190;2023-08-24T14:33:49;7.32;;;3.63;;
10963;SDS011;5534;48.784;9.190;2023-08-24T14:36:15;6.57;;;3.22;;
10963;SDS011;5534;48.784;9.190;2023-08-24T14:38:42;6.53;;;2.97;;
10963;SDS011;5534;48.784;9.190;2023-08-24T14:41:11;5.68;;;3.40;;
10963;SDS011;5534;48.784;9.190;2023-08-24T14:43:37;7.70;;;3.70;;
10963;SDS011;5534;48.784;9.190;2023-08-24T14:46:05;5.25;;;3.55;;
10963;SDS011;5534;48.784;9.190;2023-08-24T14:48:32;8.80;;;3.63;;
10963;SDS011;5534;48.784;9.190;2023-08-24T14:50:58;7.55;;;3.30;;
10963;SDS011;5534;48.784;9.190;2023-08-24T14:53:27;8.73;;;4.07;;
10963;SDS011;5534;48.784;9.190;2023-08-24T14:55:54;10.27;;;3.65;;
10963;SDS011;5534;48.784;9.190;2023-08-24T14:58:21;6.93;;;4.13;;
10963;SDS011;5534;48.784;9.190;2023-08-24T15:00:51;10.27;;;5.00;;
10963;SDS011;5534;48.784;9.190;2023-08-24T15:03:19;8.88;;;3.78;;
10963;SDS011;5534;48.784;9.190;2023-08-24T15:06:06;9.43;;;4.20;;
10963;SDS011;5534;48.784;9.190;2023-08-24T15:08:34;7.35;;;4.00;;
10963;SDS011;5534;48.784;9.190;2023-08-24T15:11:01;8.85;;;3.75;;
10963;SDS011;5534;48.784;9.190;2023-08-24T15:13:28;7.85;;;3.22;;
10963;SDS011;5534;48.784;9.190;2023-08-24T15:15:55;9.25;;;4.05;;